Time;durP1;ratioP1;P1;durP2;ratioP2;P2;SDS_P1;SDS_P2;PMS_P1;PMS_P2;Temp;Humidity;BMP_temperature;BMP_pressure;BME280_temperature;BME280_humidity;BME280_pressure;Samples;Min_cycle;Max_cycle;Signal;HPM_P1;HPM_P2
2021/01/12 00:02:01;;;;;;;3.22;3.13;;;18.90;53.50;;;;;;5007318;28;20560;-58
2021/01/12 00:04:28;;;;;;;3.58;3.38;;;19.00;53.50;;;;;;5006371;28;20078;-59
2021/01/12 00:06:55;;;;;;;4.18;3.88;;;18.90;53.40;;;;;;5000489;28;20423;-60
2021/01/12 00:09:23;;;;;;;4.45;4.13;;;18.90;53.40;;;;;;5023715;28;20048;-51
2021/01/12 00:11:52;;;;;;;6.93;4.57;;;18.90;53.30;;;;;;5084721;28;20090;-51
2021/01/12 00:14:33;;;;;;;4.55;4.20;;;19.00;53.30;;;;;;5081777;28;20038;-52
2021/01/12 00:17:01;;;;;;;3.63;3.53;;;18.90;53.20;;;;;;5085289;28;20515;-46
2021/01/12 00:19:29;;;;;;;7.78;4.25;;;18.90;53.20;;;;;;5079350;28;20048;-52
2021/01/12 00:21:56;;;;;;;4.03;3.83;;;18.90;53.20;;;;;;5080573;28;20045;-49
2021/01/12 00:24:24;;;;;;;5.10;4.80;;;19.00;53.20;;;;;;5081980;28;20048;-54
2021/01/12 00:26:51;;;;;;;4.45;4.22;;;18.90;53.20;;;;;;5079984;28;20076;-56
2021/01/12 00:29:18;;;;;;;4.43;4.18;;;18.90;53.00;;;;;;5082843;28;20044;-56
2021/01/12 00:31:45;;;;;;;5.82;5.47;;;19.00;53.10;;;;;;5075241;28;20083;-54
2021/01/12 00:34:13;;;;;;;4.68;4.35;;;18.90;53.00;;;;;;5087559;28;20040;-56
2021/01/12 00:36:40;;;;;;;5.22;4.90;;;18.90;52.90;;;;;;5080441;28;20044;-55
2021/01/12 00:39:08;;;;;;;4.93;4.63;;;18.90;52.70;;;;;;5083496;28;20311;-55
2021/01/12 00:41:36;;;;;;;4.90;4.53;;;19.00;52.80;;;;;;5083765;28;20044;-55
2021/01/12 00:44:04;;;;;;;5.88;5.53;;;19.00;52.80;;;;;;5087301;28;20059;-53
2021/01/12 00:46:30;;;;;;;6.28;5.95;;;18.90;52.70;;;;;;5083425;28;20064;-51
2021/01/12 00:49:03;;;;;;;6.53;5.93;;;19.00;52.80;;;;;;5078241;28;20131;-52
2021/01/12 00:51:37;;;;;;;6.93;6.45;;;18.90;52.70;;;;;;5083373;28;20041;-59
2021/01/12 00:54:06;;;;;;;7.55;7.22;;;19.00;52.80;;;;;;5080324;28;20095;-63
2021/01/12 00:56:33;;;;;;;6.60;6.10;;;18.90;52.90;;;;;;5080288;28;20040;-55
2021/01/12 00:59:00;;;;;;;60.28;26.83;;;18.90;52.60;;;;;;5076395;28;20054;-58
2021/01/12 01:01:27;;;;;;;61.80;30.77;;;18.90;52.60;;;;;;5084794;28;20040;-57
2021/01/12 01:03:54;;;;;;;59.63;29.42;;;18.90;52.30;;;;;;5084013;28;20070;-58
2021/01/12 01:06:21;;;;;;;49.05;27.13;;;18.90;52.30;;;;;;5081830;28;20564;-54
2021/01/12 01:08:47;;;;;;;52.55;27.25;;;18.90;52.30;;;;;;5076859;28;20048;-58
2021/01/12 01:11:14;;;;;;;42.58;24.27;;;18.90;52.30;;;;;;5080783;28;20048;-57
2021/01/12 01:13:41;;;;;;;46.08;24.45;;;18.90;52.10;;;;;;5087389;28;20584;-59
2021/01/12 01:16:09;;;;;;;45.25;22.85;;;19.00;52.20;;;;;;5080581;28;20808;-56
2021/01/12 01:18:35;;;;;;;30.70;22.10;;;18.90;52.10;;;;;;5079984;28;20044;-58
2021/01/12 01:21:02;;;;;;;39.03;21.30;;;19.00;52.00;;;;;;5076563;28;20032;-55
2021/01/12 01:23:29;;;;;;;41.00;19.52;;;19.00;52.10;;;;;;5079402;28;20072;-56
2021/01/12 01:25:55;;;;;;;40.05;20.05;;;18.90;52.00;;;;;;5082140;28;20047;-55
2021/01/12 01:28:23;;;;;;;37.08;20.95;;;18.90;51.90;;;;;;5082970;28;20040;-55
2021/01/12 01:30:52;;;;;;;31.73;18.45;;;18.90;51.80;;;;;;5079750;28;20079;-54
2021/01/12 01:33:20;;;;;;;40.05;21.25;;;18.90;51.90;;;;;;5079716;28;20058;-60
2021/01/12 01:35:47;;;;;;;34.67;20.02;;;18.90;52.00;;;;;;5080410;28;20064;-55
2021/01/12 01:38:14;;;;;;;33.25;18.35;;;18.90;51.90;;;;;;5075730;28;20064;-55
2021/01/12 01:40:40;;;;;;;29.75;17.40;;;18.90;51.60;;;;;;5086736;28;20550;-56
2021/01/12 01:43:08;;;;;;;26.98;15.25;;;18.90;51.80;;;;;;5080357;28;20425;-56
2021/01/12 01:45:34;;;;;;;25.95;15.85;;;18.90;51.60;;;;;;5082334;28;20048;-59
2021/01/12 01:48:02;;;;;;;24.70;13.80;;;18.90;51.70;;;;;;5079089;28;20116;-58
2021/01/12 01:50:31;;;;;;;22.33;14.48;;;18.90;51.60;;;;;;5082370;28;20429;-58
2021/01/12 01:52:57;;;;;;;21.20;15.63;;;18.90;51.60;;;;;;5077779;28;20583;-58
2021/01/12 01:55:25;;;;;;;26.00;16.17;;;18.90;51.60;;;;;;5080464;28;20495;-59
2021/01/12 01:57:51;;;;;;;24.45;13.82;;;18.90;51.70;;;;;;5080760;28;20090;-58
2021/01/12 02:00:20;;;;;;;28.45;15.23;;;18.90;51.70;;;;;;5076826;28;20500;-59
2021/01/12 02:02:53;;;;;;;16.77;12.15;;;18.90;51.70;;;;;;5078795;28;20078;-58
2021/01/12 02:05:23;;;;;;;25.17;14.75;;;18.90;51.70;;;;;;5082013;28;20036;-58
2021/01/12 02:07:53;;;;;;;24.13;12.90;;;18.90;51.60;;;;;;5080172;28;20048;-57
2021/01/12 02:10:24;;;;;;;23.38;13.18;;;18.90;51.70;;;;;;5083961;28;20105;-56
2021/01/12 02:12:58;;;;;;;20.67;13.13;;;18.90;51.60;;;;;;5074118;28;20577;-55
2021/01/12 02:15:26;;;;;;;17.38;11.20;;;18.90;52.30;;;;;;5083393;28;20036;-56
2021/01/12 02:17:54;;;;;;;19.70;11.88;;;18.90;51.60;;;;;;5078133;28;20047;-55
2021/01/12 02:20:22;;;;;;;21.48;11.57;;;18.90;51.60;;;;;;5078877;28;20520;-57
2021/01/12 02:23:08;;;;;;;19.33;11.38;;;18.90;51.50;;;;;;5083650;28;20044;-58
2021/01/12 02:25:37;;;;;;;17.70;12.50;;;18.90;51.70;;;;;;5077111;28;20059;-57
2021/01/12 02:28:06;;;;;;;19.27;10.80;;;18.90;51.60;;;;;;5084561;28;20083;-57
2021/01/12 02:30:33;;;;;;;22.65;10.65;;;18.90;51.70;;;;;;5078147;28;20048;-56
2021/01/12 02:33:00;;;;;;;18.00;10.40;;;18.90;51.60;;;;;;5080141;28;20410;-56
2021/01/12 02:35:29;;;;;;;14.27;9.95;;;18.90;51.70;;;;;;5073153;28;20033;-58
2021/01/12 02:37:57;;;;;;;16.90;8.55;;;18.90;52.20;;;;;;5080670;28;20056;-56
2021/01/12 02:40:25;;;;;;;17.13;10.60;;;18.90;51.50;;;;;;5082049;28;20603;-56
2021/01/12 02:42:53;;;;;;;16.73;9.18;;;18.90;51.50;;;;;;5076070;28;20048;-57
2021/01/12 02:45:20;;;;;;;16.52;9.05;;;18.90;51.50;;;;;;5079818;28;20127;-61
2021/01/12 02:47:47;;;;;;;14.20;8.55;;;18.90;51.50;;;;;;5080660;28;20040;-55
2021/01/12 02:50:15;;;;;;;10.07;7.85;;;18.90;51.60;;;;;;5074552;28;20712;-58
2021/01/12 02:52:42;;;;;;;10.30;7.68;;;18.90;51.60;;;;;;5083105;28;20117;-57
2021/01/12 02:55:10;;;;;;;13.35;9.15;;;18.90;51.60;;;;;;5079266;28;20412;-56
2021/01/12 02:57:37;;;;;;;11.65;8.38;;;18.90;51.50;;;;;;5081098;28;20055;-58
2021/01/12 03:00:06;;;;;;;11.40;7.53;;;18.90;51.50;;;;;;5081110;28;20044;-57
2021/01/12 03:02:33;;;;;;;13.70;7.63;;;18.90;51.50;;;;;;5078484;28;20044;-58
2021/01/12 03:05:00;;;;;;;15.90;8.15;;;18.90;51.60;;;;;;5082387;28;20090;-58
2021/01/12 03:07:26;;;;;;;12.60;8.48;;;18.90;51.40;;;;;;5081185;28;20044;-59
2021/01/12 03:09:53;;;;;;;9.07;6.82;;;18.90;51.30;;;;;;5082929;28;20076;-58
2021/01/12 03:12:19;;;;;;;7.00;6.15;;;18.90;51.40;;;;;;5080170;28;20520;-56
2021/01/12 03:14:46;;;;;;;9.95;5.82;;;18.90;51.20;;;;;;5077954;28;20076;-55
2021/01/12 03:17:14;;;;;;;12.88;6.40;;;18.90;51.30;;;;;;5076240;28;20040;-54
2021/01/12 03:19:41;;;;;;;7.18;5.85;;;18.90;51.40;;;;;;5082633;28;20051;-56
2021/01/12 03:22:08;;;;;;;11.02;6.07;;;18.90;51.40;;;;;;5079409;28;20048;-57
2021/01/12 03:24:35;;;;;;;14.30;6.78;;;18.90;51.30;;;;;;5076570;28;20527;-55
2021/01/12 03:27:02;;;;;;;7.30;6.28;;;18.90;51.40;;;;;;5076434;28;20044;-56
2021/01/12 03:29:28;;;;;;;10.75;5.30;;;18.90;51.40;;;;;;5078049;28;20067;-55
2021/01/12 03:31:55;;;;;;;6.25;5.43;;;18.90;51.30;;;;;;5078830;28;20101;-56
2021/01/12 03:34:23;;;;;;;8.45;5.18;;;18.90;51.20;;;;;;5078522;28;20044;-58
2021/01/12 03:36:49;;;;;;;7.97;6.13;;;18.90;51.40;;;;;;5089001;28;20559;-56
2021/01/12 03:39:16;;;;;;;4.80;4.22;;;18.90;51.30;;;;;;5085056;28;20119;-55
2021/01/12 03:41:43;;;;;;;5.88;4.43;;;18.90;51.30;;;;;;5096228;28;20040;-58
2021/01/12 03:44:10;;;;;;;4.78;3.95;;;18.90;51.40;;;;;;5072357;28;20131;-56
2021/01/12 03:46:36;;;;;;;4.47;3.92;;;18.90;51.30;;;;;;5084566;28;20102;-58
2021/01/12 03:49:03;;;;;;;7.68;4.25;;;18.90;51.30;;;;;;5083535;28;20123;-59
2021/01/12 03:51:30;;;;;;;7.00;4.47;;;18.90;51.30;;;;;;5087242;28;20094;-56
2021/01/12 03:53:57;;;;;;;4.22;3.83;;;18.90;51.30;;;;;;5081666;28;20123;-57
2021/01/12 03:56:23;;;;;;;5.47;4.00;;;18.90;51.30;;;;;;5076812;28;20044;-58
2021/01/12 03:58:50;;;;;;;6.30;3.72;;;18.90;51.30;;;;;;5086718;28;20051;-55
2021/01/12 04:01:17;;;;;;;4.03;3.63;;;18.90;51.30;;;;;;5078112;28;20052;-55
2021/01/12 04:03:44;;;;;;;6.35;4.50;;;18.90;51.20;;;;;;5088013;28;20576;-56
2021/01/12 04:06:13;;;;;;;6.72;3.72;;;18.80;51.30;;;;;;5083255;28;20041;-56
2021/01/12 04:08:42;;;;;;;3.22;2.92;;;18.90;51.50;;;;;;5083551;28;20047;-56
2021/01/12 04:11:09;;;;;;;4.07;3.65;;;18.90;51.50;;;;;;5084987;28;20067;-57
2021/01/12 04:13:35;;;;;;;3.58;3.25;;;18.90;51.40;;;;;;5082425;28;20116;-57
2021/01/12 04:16:03;;;;;;;3.17;2.40;;;18.90;51.30;;;;;;5087993;28;20131;-56
2021/01/12 04:18:30;;;;;;;3.80;2.90;;;18.90;51.30;;;;;;5082338;28;20036;-57
2021/01/12 04:20:56;;;;;;;4.15;2.78;;;18.90;51.40;;;;;;5082644;28;20048;-53
2021/01/12 04:23:23;;;;;;;2.58;2.38;;;18.90;51.40;;;;;;5083495;28;20064;-56
2021/01/12 04:25:51;;;;;;;3.67;2.38;;;18.90;51.40;;;;;;5085360;28;20064;-55
2021/01/12 04:28:18;;;;;;;3.55;2.38;;;18.90;51.40;;;;;;5085785;28;20143;-52
2021/01/12 04:30:44;;;;;;;4.43;2.17;;;18.90;51.40;;;;;;5082502;28;20049;-53
2021/01/12 04:33:11;;;;;;;7.82;2.72;;;18.80;51.30;;;;;;5085047;28;20792;-54
2021/01/12 04:35:37;;;;;;;4.95;2.50;;;18.90;51.40;;;;;;5075000;28;20051;-54
2021/01/12 04:38:04;;;;;;;4.38;2.83;;;18.90;51.40;;;;;;5077198;28;20131;-56
2021/01/12 04:40:31;;;;;;;2.95;1.95;;;18.80;51.40;;;;;;5087291;28;20117;-55
2021/01/12 04:42:59;;;;;;;6.35;2.88;;;18.90;51.60;;;;;;5085093;28;20062;-55
2021/01/12 04:45:26;;;;;;;2.63;2.42;;;18.90;51.50;;;;;;5086763;28;20075;-57
2021/01/12 04:47:52;;;;;;;4.70;2.17;;;18.90;51.50;;;;;;5084806;28;20119;-57
2021/01/12 04:50:19;;;;;;;3.33;2.10;;;18.90;51.50;;;;;;5080894;28;20421;-56
2021/01/12 04:52:47;;;;;;;2.65;2.10;;;18.90;51.40;;;;;;5083742;28;20036;-57
2021/01/12 04:55:14;;;;;;;2.97;1.08;;;18.90;51.50;;;;;;5074692;28;20052;-58
2021/01/12 04:57:41;;;;;;;2.58;1.52;;;18.90;51.60;;;;;;5085916;28;20047;-54
2021/01/12 05:00:13;;;;;;;6.05;1.92;;;18.90;51.50;;;;;;5079677;28;20048;-55
2021/01/12 05:02:40;;;;;;;4.25;2.13;;;18.90;51.60;;;;;;5075093;28;20062;-55
2021/01/12 05:05:08;;;;;;;3.38;1.25;;;18.90;51.60;;;;;;5085527;28;20083;-54
2021/01/12 05:07:38;;;;;;;3.10;1.75;;;18.90;51.70;;;;;;5081332;28;20041;-57
2021/01/12 05:10:12;;;;;;;1.50;1.40;;;18.90;51.70;;;;;;5083387;28;20051;-57
2021/01/12 05:12:40;;;;;;;2.75;1.33;;;18.90;51.70;;;;;;5076228;28;20505;-59
2021/01/12 05:15:11;;;;;;;2.28;1.50;;;18.90;51.70;;;;;;5079768;28;20492;-56
2021/01/12 05:17:38;;;;;;;2.03;1.45;;;18.90;51.70;;;;;;5072873;28;20083;-54
2021/01/12 05:20:07;;;;;;;1.65;1.20;;;18.90;51.70;;;;;;5077817;28;20080;-58
2021/01/12 05:22:40;;;;;;;1.90;1.30;;;18.90;51.70;;;;;;5083908;28;20081;-56
2021/01/12 05:25:22;;;;;;;2.50;0.95;;;18.90;51.70;;;;;;5086210;28;20096;-53
2021/01/12 05:27:52;;;;;;;3.72;1.10;;;18.90;51.70;;;;;;5081560;28;20059;-57
2021/01/12 05:30:25;;;;;;;1.17;0.63;;;18.90;51.70;;;;;;5079371;28;20062;-59
2021/01/12 05:32:53;;;;;;;2.03;0.93;;;18.90;51.80;;;;;;5080636;28;20059;-55
2021/01/12 05:35:20;;;;;;;1.40;1.30;;;18.90;51.70;;;;;;5081659;28;20060;-56
2021/01/12 05:37:46;;;;;;;1.52;0.80;;;18.90;51.70;;;;;;5078604;28;20044;-58
2021/01/12 05:40:14;;;;;;;3.35;1.08;;;18.90;51.60;;;;;;5075276;28;20048;-59
2021/01/12 05:42:41;;;;;;;0.82;0.65;;;18.90;51.60;;;;;;5083119;28;20154;-57
2021/01/12 05:45:09;;;;;;;4.95;0.73;;;18.90;51.60;;;;;;5078207;28;20055;-58
2021/01/12 05:47:36;;;;;;;1.80;0.98;;;18.90;51.60;;;;;;5082374;28;20606;-56
2021/01/12 05:50:03;;;;;;;1.73;0.70;;;18.90;52.20;;;;;;5077298;28;20048;-57
2021/01/12 05:52:45;;;;;;;1.73;1.00;;;18.90;51.70;;;;;;5084840;28;20040;-56
2021/01/12 05:55:15;;;;;;;0.95;0.85;;;18.90;51.80;;;;;;5072749;28;20060;-54
2021/01/12 05:57:52;;;;;;;2.05;0.63;;;18.90;51.70;;;;;;5085392;28;20052;-56
2021/01/12 06:00:22;;;;;;;2.97;0.40;;;18.90;51.70;;;;;;5076887;28;20055;-56
2021/01/12 06:02:52;;;;;;;1.98;1.30;;;18.90;51.70;;;;;;5080680;28;20054;-56
2021/01/12 06:05:18;;;;;;;1.20;0.73;;;18.90;51.60;;;;;;5082244;28;20052;-58
2021/01/12 06:07:45;;;;;;;1.30;0.55;;;18.90;51.70;;;;;;5088103;28;20824;-55
2021/01/12 06:10:17;;;;;;;2.97;0.65;;;18.90;51.70;;;;;;5082163;28;20046;-56
2021/01/12 06:12:48;;;;;;;0.40;0.30;;;18.90;51.70;;;;;;5077736;28;20052;-56
2021/01/12 06:15:17;;;;;;;1.42;0.50;;;18.90;51.70;;;;;;5080540;28;20047;-56
2021/01/12 06:17:44;;;;;;;1.67;0.40;;;18.90;51.70;;;;;;5079773;28;20051;-55
2021/01/12 06:20:17;;;;;;;0.85;0.60;;;18.90;51.60;;;;;;5078390;28;20086;-55
2021/01/12 06:22:50;;;;;;;0.80;0.45;;;18.90;51.80;;;;;;5079931;28;20098;-56
2021/01/12 06:25:19;;;;;;;1.15;0.32;;;18.90;51.80;;;;;;5083878;28;20044;-52
2021/01/12 06:27:47;;;;;;;0.63;0.63;;;18.90;51.70;;;;;;5080425;28;20059;-55
2021/01/12 06:30:18;;;;;;;5.13;0.40;;;18.90;51.60;;;;;;5078204;28;20083;-58
2021/01/12 06:32:46;;;;;;;0.68;0.30;;;18.90;51.70;;;;;;5081663;28;20032;-58
2021/01/12 06:35:14;;;;;;;0.85;0.30;;;18.90;51.60;;;;;;5084898;28;20056;-59
2021/01/12 06:37:42;;;;;;;1.00;0.75;;;18.90;51.60;;;;;;5082847;28;20067;-59
2021/01/12 06:40:10;;;;;;;1.92;0.68;;;18.90;51.70;;;;;;5080059;28;20048;-60
2021/01/12 06:42:37;;;;;;;0.40;0.40;;;18.90;51.70;;;;;;5078702;28;20063;-58
2021/01/12 06:45:06;;;;;;;1.05;0.43;;;18.90;51.70;;;;;;5082597;28;20056;-60
2021/01/12 06:47:34;;;;;;;1.73;0.52;;;18.90;51.70;;;;;;5077026;28;20048;-60
2021/01/12 06:50:09;;;;;;;0.82;0.35;;;18.90;51.70;;;;;;5077948;28;20512;-60
2021/01/12 06:52:41;;;;;;;0.30;0.20;;;18.90;51.70;;;;;;5078501;28;20140;-56
2021/01/12 06:55:10;;;;;;;1.30;0.32;;;18.90;51.70;;;;;;5080010;28;20471;-59
2021/01/12 06:57:37;;;;;;;1.30;0.20;;;18.90;51.60;;;;;;5075816;28;20074;-57
2021/01/12 07:00:09;;;;;;;0.30;0.20;;;18.90;51.70;;;;;;5074902;28;20083;-58
2021/01/12 07:02:36;;;;;;;2.50;0.50;;;18.90;51.70;;;;;;5084462;28;20044;-60
2021/01/12 07:05:13;;;;;;;1.38;0.28;;;18.90;51.70;;;;;;5083111;28;20044;-59
2021/01/12 07:07:42;;;;;;;0.68;0.55;;;18.90;51.80;;;;;;5081915;28;20131;-60
2021/01/12 07:10:11;;;;;;;1.95;0.20;;;18.90;51.80;;;;;;5083947;28;20055;-60
2021/01/12 07:12:39;;;;;;;1.48;0.22;;;18.90;51.70;;;;;;5083075;28;20055;-60
2021/01/12 07:15:09;;;;;;;0.35;0.10;;;18.90;51.60;;;;;;5080825;28;20726;-60
2021/01/12 07:17:41;;;;;;;1.00;0.30;;;18.90;51.50;;;;;;5082603;28;20401;-61
2021/01/12 07:20:14;;;;;;;0.25;0.13;;;18.90;52.10;;;;;;5082819;28;20044;-58
2021/01/12 07:22:51;;;;;;;1.95;0.22;;;18.90;51.50;;;;;;5086581;28;20071;-59
2021/01/12 07:25:20;;;;;;;0.55;0.30;;;18.90;51.60;;;;;;5079170;28;20592;-60
2021/01/12 07:28:01;;;;;;;0.50;0.30;;;18.90;51.60;;;;;;5088471;28;20123;-58
2021/01/12 07:30:29;;;;;;;1.85;0.55;;;18.90;51.60;;;;;;5082272;28;20059;-61
2021/01/12 07:32:57;;;;;;;2.08;0.10;;;18.80;52.00;;;;;;5086394;28;20040;-59
2021/01/12 07:35:25;;;;;;;1.95;0.10;;;18.80;49.40;;;;;;5084446;28;20059;-58
2021/01/12 07:37:53;;;;;;;1.75;0.10;;;18.80;47.90;;;;;;5078379;28;20131;-60
2021/01/12 07:40:20;;;;;;;2.15;0.10;;;18.80;47.00;;;;;;5083899;28;20061;-57
2021/01/12 07:42:49;;;;;;;1.85;0.10;;;18.80;46.60;;;;;;5080090;28;20062;-56
2021/01/12 07:45:18;;;;;;;2.85;0.20;;;18.70;45.90;;;;;;5080357;28;20063;-49
2021/01/12 07:47:48;;;;;;;4.18;0.20;;;18.60;45.70;;;;;;5077340;28;20047;-55
2021/01/12 07:50:15;;;;;;;0.85;0.10;;;18.50;45.50;;;;;;5079793;28;20033;-55
2021/01/12 07:52:42;;;;;;;9.60;1.25;;;18.50;45.60;;;;;;5076592;28;20048;-54
2021/01/12 07:55:10;;;;;;;8.40;0.75;;;18.30;46.60;;;;;;5081821;28;20044;-52
2021/01/12 07:57:37;;;;;;;4.50;1.48;;;18.30;47.90;;;;;;5073547;28;20416;-51
2021/01/12 08:00:06;;;;;;;7.60;0.77;;;18.30;48.60;;;;;;5078808;28;20046;-49
2021/01/12 08:02:40;;;;;;;8.05;0.80;;;18.20;49.10;;;;;;5076281;28;20134;-53
2021/01/12 08:05:08;;;;;;;4.60;1.05;;;18.30;49.50;;;;;;5075077;28;20063;-53
2021/01/12 08:07:35;;;;;;;4.88;0.80;;;18.30;49.90;;;;;;5082698;28;20040;-49
2021/01/12 08:10:04;;;;;;;4.28;2.13;;;18.30;50.00;;;;;;5079598;28;20048;-51
2021/01/12 08:12:32;;;;;;;3.38;3.17;;;18.30;50.20;;;;;;5086541;28;20040;-52
2021/01/12 08:15:09;;;;;;;11.00;6.78;;;18.30;50.20;;;;;;5075265;28;20135;-51
2021/01/12 08:17:45;;;;;;;10.40;9.80;;;18.40;50.30;;;;;;5076187;28;20048;-53
2021/01/12 08:20:14;;;;;;;19.33;10.63;;;18.40;50.50;;;;;;5079940;28;20044;-53
2021/01/12 08:22:47;;;;;;;15.13;13.98;;;18.40;50.50;;;;;;5076941;28;20058;-51
2021/01/12 08:25:15;;;;;;;17.48;15.90;;;18.40;50.50;;;;;;5078604;28;20044;-51
2021/01/12 08:27:48;;;;;;;18.05;16.65;;;18.40;50.60;;;;;;5079788;28;20102;-50
2021/01/12 08:30:18;;;;;;;20.02;18.77;;;18.50;50.80;;;;;;5080756;28;20570;-55
2021/01/12 08:32:52;;;;;;;19.17;17.92;;;18.50;50.80;;;;;;5076046;28;20090;-51
2021/01/12 08:35:21;;;;;;;87.68;47.60;;;18.50;50.90;;;;;;5072892;28;20474;-48
2021/01/12 08:37:48;;;;;;;80.68;45.50;;;18.50;51.00;;;;;;5085279;28;20769;-50
2021/01/12 08:40:18;;;;;;;70.68;41.03;;;18.50;51.10;;;;;;5089069;28;20170;-47
2021/01/12 08:42:46;;;;;;;74.05;39.78;;;18.50;51.10;;;;;;5075843;28;20124;-51
2021/01/12 08:45:16;;;;;;;71.47;36.78;;;18.50;51.00;;;;;;5079280;28;20056;-52
2021/01/12 08:47:45;;;;;;;64.38;33.03;;;18.50;51.00;;;;;;5078643;28;20083;-52
2021/01/12 08:50:13;;;;;;;54.65;32.38;;;18.50;51.00;;;;;;5082062;28;20404;-53
2021/01/12 08:52:49;;;;;;;52.47;33.38;;;18.60;51.20;;;;;;5079640;28;20068;-50
2021/01/12 08:55:17;;;;;;;;;;;18.60;51.40;;;;;;5081661;28;20463;-48
2021/01/12 08:57:54;;;;;;;47.67;27.70;;;18.50;50.70;;;;;;5078717;28;19957;-51
2021/01/12 09:00:28;;;;;;;39.97;27.67;;;18.60;51.50;;;;;;5074563;28;20051;-53
2021/01/12 09:02:56;;;;;;;38.65;27.55;;;18.60;51.80;;;;;;5076110;28;20530;-52
2021/01/12 09:05:23;;;;;;;37.65;25.25;;;18.60;51.70;;;;;;5082165;28;20052;-50
2021/01/12 09:07:59;;;;;;;35.70;24.50;;;18.60;51.80;;;;;;5073940;28;20117;-48
2021/01/12 09:10:27;;;;;;;;;;;18.60;52.10;;;;;;5077194;28;20512;-49
2021/01/12 09:12:54;;;;;;;35.00;23.73;;;18.60;51.00;;;;;;5081814;28;20383;-52
2021/01/12 09:15:30;;;;;;;27.63;21.90;;;18.60;51.70;;;;;;5087841;28;20105;-49
2021/01/12 09:18:05;;;;;;;33.00;21.70;;;18.60;52.00;;;;;;5086513;28;20568;-48
2021/01/12 09:20:32;;;;;;;24.00;20.13;;;18.70;52.20;;;;;;5079243;28;20054;-47
2021/01/12 09:23:07;;;;;;;31.90;20.33;;;18.70;52.10;;;;;;5077126;28;20052;-50
2021/01/12 09:25:35;;;;;;;22.83;17.85;;;18.70;52.40;;;;;;5087694;28;20048;-47
2021/01/12 09:28:13;;;;;;;30.17;19.42;;;18.70;52.10;;;;;;5077882;28;20114;-47
2021/01/12 09:30:42;;;;;;;24.92;17.90;;;18.70;52.50;;;;;;5078095;28;20504;-49
2021/01/12 09:33:11;;;;;;;24.77;17.80;;;18.70;52.20;;;;;;5084526;28;20039;-48
2021/01/12 09:35:38;;;;;;;24.67;17.05;;;18.80;52.30;;;;;;5083096;28;20055;-55
2021/01/12 09:38:05;;;;;;;21.50;17.08;;;18.80;52.40;;;;;;5075821;28;20060;-59
2021/01/12 09:40:32;;;;;;;20.90;15.70;;;18.80;52.30;;;;;;5079231;28;20052;-47
2021/01/12 09:42:59;;;;;;;26.45;14.07;;;18.80;52.60;;;;;;5076386;28;20047;-48
2021/01/12 09:45:27;;;;;;;17.27;14.52;;;18.80;52.50;;;;;;5073772;28;20067;-60
2021/01/12 09:47:55;;;;;;;18.30;11.75;;;18.80;52.60;;;;;;5077782;28;20469;-49
2021/01/12 09:50:22;;;;;;;19.67;13.77;;;18.90;52.60;;;;;;5080971;28;20044;-47
2021/01/12 09:52:48;;;;;;;16.55;12.32;;;18.90;52.60;;;;;;5089085;28;20048;-53
2021/01/12 09:55:15;;;;;;;13.00;11.15;;;18.80;52.50;;;;;;5087134;28;23534;-49
2021/01/12 09:57:42;;;;;;;15.43;13.05;;;18.90;52.60;;;;;;5084182;28;20044;-50
2021/01/12 10:00:10;;;;;;;17.00;10.45;;;18.90;52.60;;;;;;5079333;28;20051;-53
2021/01/12 10:02:40;;;;;;;15.93;11.45;;;18.90;52.60;;;;;;5082091;28;20579;-53
2021/01/12 10:05:19;;;;;;;17.25;10.23;;;18.90;52.60;;;;;;5080079;28;20048;-52
2021/01/12 10:07:46;;;;;;;11.85;9.73;;;18.90;52.60;;;;;;5087352;28;20055;-60
2021/01/12 10:10:13;;;;;;;18.70;10.40;;;19.00;52.70;;;;;;5086086;28;20047;-55
2021/01/12 10:12:40;;;;;;;8.75;7.90;;;18.90;52.70;;;;;;5083908;28;20067;-56
2021/01/12 10:15:07;;;;;;;14.73;8.55;;;19.00;52.70;;;;;;5095729;28;20040;-60
2021/01/12 10:17:34;;;;;;;11.23;7.95;;;18.90;52.70;;;;;;5093531;28;20044;-60
2021/01/12 10:20:02;;;;;;;8.90;8.07;;;19.00;52.70;;;;;;5071514;28;20583;-60
2021/01/12 10:22:29;;;;;;;10.27;7.88;;;19.00;52.80;;;;;;5073873;28;20075;-60
2021/01/12 10:24:58;;;;;;;8.38;7.68;;;19.00;52.80;;;;;;5077604;28;20050;-61
2021/01/12 10:27:26;;;;;;;7.35;6.80;;;19.00;52.80;;;;;;5077580;28;20036;-57
2021/01/12 10:29:54;;;;;;;6.93;6.25;;;19.00;52.80;;;;;;5085175;28;20040;-60
2021/01/12 10:32:21;;;;;;;8.52;6.38;;;19.00;52.70;;;;;;5078616;28;20047;-60
2021/01/12 10:34:48;;;;;;;7.40;6.15;;;19.00;52.80;;;;;;5076456;28;20040;-56
2021/01/12 10:37:14;;;;;;;6.60;6.18;;;19.00;52.80;;;;;;5073450;28;20053;-64
2021/01/12 10:39:42;;;;;;;5.90;5.43;;;19.00;52.90;;;;;;5077383;28;20055;-60
2021/01/12 10:42:09;;;;;;;7.72;6.68;;;19.10;53.00;;;;;;5074289;28;20087;-67
2021/01/12 10:44:35;;;;;;;6.25;5.65;;;19.00;53.00;;;;;;5072857;28;20526;-60
2021/01/12 10:47:02;;;;;;;7.80;4.78;;;19.10;53.20;;;;;;5069564;28;20063;-61
2021/01/12 10:49:30;;;;;;;5.93;5.47;;;19.10;53.00;;;;;;5073416;28;20052;-63
2021/01/12 10:51:58;;;;;;;5.90;4.65;;;19.10;53.10;;;;;;5082041;28;20060;-61
2021/01/12 10:54:25;;;;;;;5.15;3.80;;;19.10;53.10;;;;;;5079212;28;20055;-56
2021/01/12 10:56:53;;;;;;;4.32;4.03;;;19.10;53.00;;;;;;5075680;28;20054;-58
2021/01/12 10:59:20;;;;;;;6.35;4.55;;;19.10;53.10;;;;;;5075196;28;20131;-60
2021/01/12 11:01:53;;;;;;;4.50;4.03;;;19.20;53.00;;;;;;5078762;28;20060;-57
2021/01/12 11:04:19;;;;;;;4.57;4.28;;;19.20;53.20;;;;;;5077856;28;20064;-61
2021/01/12 11:06:47;;;;;;;4.40;3.90;;;19.10;52.90;;;;;;5077230;28;20053;-57
2021/01/12 11:09:15;;;;;;;4.25;3.85;;;19.20;53.10;;;;;;5082484;28;20072;-66
2021/01/12 11:11:41;;;;;;;4.35;2.95;;;19.20;53.10;;;;;;5078615;28;20508;-64
2021/01/12 11:14:10;;;;;;;4.53;4.20;;;19.20;53.60;;;;;;5073250;28;20095;-62
2021/01/12 11:16:38;;;;;;;2.20;2.00;;;19.20;53.20;;;;;;5081448;28;20044;-64
2021/01/12 11:19:08;;;;;;;3.22;2.88;;;19.20;53.10;;;;;;5083215;28;20554;-61
2021/01/12 11:21:41;;;;;;;3.60;2.42;;;19.20;53.10;;;;;;5077332;28;20086;-61
2021/01/12 11:24:08;;;;;;;3.47;3.15;;;19.20;53.30;;;;;;5080504;28;20137;-59
2021/01/12 11:26:35;;;;;;;2.92;2.70;;;19.20;53.10;;;;;;5079017;28;20082;-56
2021/01/12 11:29:02;;;;;;;3.60;2.53;;;19.20;53.20;;;;;;5089766;28;20040;-61
2021/01/12 11:31:30;;;;;;;2.80;2.35;;;19.20;53.20;;;;;;5080377;28;20138;-62
2021/01/12 11:33:57;;;;;;;5.63;3.25;;;19.30;53.10;;;;;;5080630;28;20044;-58
2021/01/12 11:36:24;;;;;;;7.13;1.88;;;19.30;53.50;;;;;;5087251;28;20416;-62
2021/01/12 11:38:51;;;;;;;2.85;2.38;;;19.30;53.70;;;;;;5088179;28;20044;-60
2021/01/12 11:41:19;;;;;;;3.70;2.55;;;19.30;53.90;;;;;;5078247;28;20114;-62
2021/01/12 11:43:46;;;;;;;2.67;2.20;;;19.30;54.70;;;;;;5086084;28;20512;-65
2021/01/12 11:46:12;;;;;;;3.17;1.63;;;19.30;54.20;;;;;;5084115;28;20143;-62
2021/01/12 11:48:40;;;;;;;2.05;1.63;;;19.40;53.70;;;;;;5084551;28;20081;-62
2021/01/12 11:51:07;;;;;;;1.02;0.93;;;19.40;53.20;;;;;;5082164;28;20120;-62
2021/01/12 11:53:33;;;;;;;2.05;0.98;;;19.40;52.90;;;;;;5085950;28;20048;-64
2021/01/12 11:56:00;;;;;;;3.60;1.50;;;19.40;52.80;;;;;;5089889;28;20119;-64
2021/01/12 11:58:27;;;;;;;2.20;0.98;;;19.40;52.80;;;;;;5087464;28;20120;-63
2021/01/12 12:00:54;;;;;;;0.98;0.95;;;19.40;52.70;;;;;;5085091;28;20050;-63
2021/01/12 12:03:21;;;;;;;1.10;1.10;;;19.50;52.80;;;;;;5084509;28;20071;-63
2021/01/12 12:05:48;;;;;;;0.90;0.90;;;19.40;52.80;;;;;;5086563;28;20048;-65
2021/01/12 12:08:15;;;;;;;1.38;0.95;;;19.50;52.70;;;;;;5083867;28;20052;-63
2021/01/12 12:10:42;;;;;;;0.95;0.93;;;19.50;52.70;;;;;;5087265;28;20044;-64
2021/01/12 12:13:08;;;;;;;0.88;0.88;;;19.40;52.50;;;;;;5084424;28;20498;-64
2021/01/12 12:15:35;;;;;;;1.02;0.95;;;19.50;52.60;;;;;;5085792;28;20496;-63
2021/01/12 12:18:02;;;;;;;1.13;0.55;;;19.50;52.80;;;;;;5081839;28;20052;-63
2021/01/12 12:20:29;;;;;;;0.82;0.73;;;19.50;52.80;;;;;;5086400;28;20039;-62
2021/01/12 12:22:57;;;;;;;0.60;0.60;;;19.50;52.80;;;;;;5086895;28;20105;-63
2021/01/12 12:25:24;;;;;;;1.02;0.32;;;19.50;52.80;;;;;;5083913;28;20051;-63
2021/01/12 12:27:50;;;;;;;2.15;1.60;;;19.50;53.40;;;;;;5091011;28;20052;-63
2021/01/12 12:30:18;;;;;;;1.20;0.68;;;19.50;52.90;;;;;;5095286;28;20042;-63
2021/01/12 12:32:45;;;;;;;0.60;0.60;;;19.50;53.00;;;;;;5092548;28;20488;-63
2021/01/12 12:35:12;;;;;;;1.05;1.05;;;19.50;53.00;;;;;;5097164;28;20044;-63
2021/01/12 12:37:39;;;;;;;1.50;0.70;;;19.50;53.20;;;;;;5099940;28;20089;-63
2021/01/12 12:40:08;;;;;;;0.82;0.47;;;19.50;53.20;;;;;;5101143;28;20071;-63
2021/01/12 12:42:35;;;;;;;0.70;0.70;;;19.50;53.40;;;;;;5098792;28;20074;-63
2021/01/12 12:45:02;;;;;;;0.50;0.50;;;19.50;53.40;;;;;;5097889;28;20048;-63
2021/01/12 12:47:29;;;;;;;0.80;0.80;;;19.50;53.50;;;;;;5097287;28;20040;-63